Time;durP1;ratioP1;P1;durP2;ratioP2;P2;SDS_P1;SDS_P2;PMS_P1;PMS_P2;Temp;Humidity;BMP_temperature;BMP_pressure;BME280_temperature;BME280_humidity;BME280_pressure;Samples;Min_cycle;Max_cycle;Signal;HPM_P1;HPM_P2
2022/03/31 00:00:56;;;;;;;2.92;1.30;;;;;;;;;;5070018;28;20301;-17
2022/03/31 00:03:23;;;;;;;4.90;1.48;;;;;;;;;;5068936;28;20700;-18
2022/03/31 00:05:51;;;;;;;3.05;1.20;;;;;;;;;;5071039;28;20252;-17
2022/03/31 00:08:19;;;;;;;7.50;1.38;;;;;;;;;;5071254;28;20233;-18
2022/03/31 00:10:47;;;;;;;6.72;1.38;;;;;;;;;;5071211;28;20222;-17
2022/03/31 00:13:17;;;;;;;8.15;1.25;;;;;;;;;;5070184;28;20252;-17
2022/03/31 00:15:45;;;;;;;4.70;1.42;;;;;;;;;;5067789;28;20229;-17
2022/03/31 00:18:13;;;;;;;3.20;1.50;;;;;;;;;;5067223;28;20236;-18
2022/03/31 00:23:44;;;;;;;3.63;1.73;;;;;;;;;;5066895;28;20750;-17
2022/03/31 00:26:13;;;;;;;2.00;1.67;;;;;;;;;;5070123;28;20228;-18
2022/03/31 00:28:42;;;;;;;1.73;1.08;;;;;;;;;;5071690;28;20233;-17
2022/03/31 00:31:10;;;;;;;3.10;1.40;;;;;;;;;;5071383;28;20228;-17
2022/03/31 00:33:37;;;;;;;2.42;1.35;;;;;;;;;;5071170;28;20331;-18
2022/03/31 00:36:05;;;;;;;4.38;1.30;;;;;;;;;;5070659;28;20696;-17
2022/03/31 00:38:32;;;;;;;1.95;1.23;;;;;;;;;;5070280;28;20226;-18
2022/03/31 00:41:00;;;;;;;1.98;1.20;;;;;;;;;;5071067;28;20245;-18
2022/03/31 00:43:28;;;;;;;6.00;1.77;;;;;;;;;;5071123;28;20230;-18
2022/03/31 00:45:58;;;;;;;3.67;1.40;;;;;;;;;;5071001;28;20221;-18
2022/03/31 00:48:26;;;;;;;2.30;1.30;;;;;;;;;;5070375;28;20240;-18
2022/03/31 00:50:54;;;;;;;1.70;1.30;;;;;;;;;;5071038;28;20943;-18
2022/03/31 00:53:21;;;;;;;3.10;1.58;;;;;;;;;;5071088;28;20241;-17
2022/03/31 00:55:56;;;;;;;2.80;1.70;;;;;;;;;;5070599;28;20229;-17
2022/03/31 00:58:23;;;;;;;3.13;1.48;;;;;;;;;;5070175;28;20287;-17
2022/03/31 01:00:51;;;;;;;4.90;1.70;;;;;;;;;;5070629;28;20233;-17
2022/03/31 01:03:20;;;;;;;4.90;1.63;;;;;;;;;;5071672;28;21143;-17
2022/03/31 01:05:47;;;;;;;3.50;1.40;;;;;;;;;;5074502;28;20229;-17
2022/03/31 01:08:15;;;;;;;3.28;1.63;;;;;;;;;;5073817;28;20237;-17
2022/03/31 01:10:42;;;;;;;2.15;1.52;;;;;;;;;;5070905;28;20247;-17
2022/03/31 01:13:10;;;;;;;5.65;1.63;;;;;;;;;;5074023;28;20233;-17
2022/03/31 01:15:38;;;;;;;6.22;1.67;;;;;;;;;;5074020;28;20352;-17
2022/03/31 01:18:06;;;;;;;3.67;1.63;;;;;;;;;;5074178;28;20305;-17
2022/03/31 01:20:36;;;;;;;5.40;1.60;;;;;;;;;;5073559;28;20276;-17
2022/03/31 01:23:03;;;;;;;1.65;1.30;;;;;;;;;;5071809;28;20233;-17
2022/03/31 01:25:33;;;;;;;2.08;1.50;;;;;;;;;;5071998;28;20229;-17
2022/03/31 01:28:00;;;;;;;1.95;1.52;;;;;;;;;;5072278;28;20238;-17
2022/03/31 01:30:28;;;;;;;2.00;1.75;;;;;;;;;;5072083;28;21023;-17
2022/03/31 01:32:55;;;;;;;2.63;1.88;;;;;;;;;;5073137;28;20225;-17
2022/03/31 01:35:23;;;;;;;1.92;1.73;;;;;;;;;;5074186;28;20226;-18
2022/03/31 01:37:51;;;;;;;3.97;1.52;;;;;;;;;;5073791;28;20990;-17
2022/03/31 01:40:18;;;;;;;3.45;1.33;;;;;;;;;;5073746;28;20240;-18
2022/03/31 01:42:47;;;;;;;2.10;1.30;;;;;;;;;;5074244;28;20222;-17
2022/03/31 01:45:17;;;;;;;3.58;1.58;;;;;;;;;;5071194;28;20232;-17
2022/03/31 01:47:45;;;;;;;4.38;1.67;;;;;;;;;;5073685;28;20722;-17
2022/03/31 01:50:12;;;;;;;3.30;1.52;;;;;;;;;;5069560;28;20237;-17
2022/03/31 01:52:40;;;;;;;5.30;1.58;;;;;;;;;;5072782;28;20236;-17
2022/03/31 01:55:08;;;;;;;3.45;1.70;;;;;;;;;;5068604;28;20238;-17
2022/03/31 01:57:35;;;;;;;2.28;1.40;;;;;;;;;;5068587;28;20230;-17
2022/03/31 02:00:05;;;;;;;3.95;1.30;;;;;;;;;;5073181;28;20727;-17
2022/03/31 02:02:33;;;;;;;3.35;1.83;;;;;;;;;;5072423;28;20269;-17
2022/03/31 02:05:00;;;;;;;1.90;1.30;;;;;;;;;;5073314;28;20233;-17
2022/03/31 02:07:28;;;;;;;1.73;1.30;;;;;;;;;;5073093;28;20238;-17
2022/03/31 02:09:55;;;;;;;2.40;1.45;;;;;;;;;;5073449;28;20251;-17
2022/03/31 02:12:23;;;;;;;3.50;1.25;;;;;;;;;;5073328;28;20225;-17
2022/03/31 02:14:50;;;;;;;2.28;1.30;;;;;;;;;;5072499;28;21080;-17
2022/03/31 02:17:19;;;;;;;1.40;1.10;;;;;;;;;;5072054;28;20240;-17
2022/03/31 02:19:47;;;;;;;2.20;1.20;;;;;;;;;;5073298;28;20240;-18
2022/03/31 02:22:14;;;;;;;2.20;1.00;;;;;;;;;;5061257;22;20245;-15
2022/03/31 02:24:42;;;;;;;3.08;1.27;;;;;;;;;;5038235;28;20235;-15
2022/03/31 02:27:09;;;;;;;3.13;1.15;;;;;;;;;;5042869;28;20234;-15
2022/03/31 02:29:36;;;;;;;2.20;1.33;;;;;;;;;;5036371;28;21141;-15
2022/03/31 02:32:04;;;;;;;2.25;1.30;;;;;;;;;;5045213;28;20226;-15
2022/03/31 02:34:33;;;;;;;1.42;1.00;;;;;;;;;;5043111;28;21085;-14
2022/03/31 02:37:01;;;;;;;2.28;1.10;;;;;;;;;;5041248;28;20237;-14
2022/03/31 02:39:29;;;;;;;1.60;1.00;;;;;;;;;;5040620;28;20252;-14
2022/03/31 02:41:57;;;;;;;1.17;0.90;;;;;;;;;;5040616;28;20234;-14
2022/03/31 02:44:25;;;;;;;1.98;1.10;;;;;;;;;;5041933;28;20226;-14
2022/03/31 02:46:52;;;;;;;1.42;1.05;;;;;;;;;;5042705;28;20234;-15
2022/03/31 02:49:20;;;;;;;1.45;1.08;;;;;;;;;;5040586;28;20242;-15
2022/03/31 02:51:49;;;;;;;3.00;1.20;;;;;;;;;;5044083;28;20226;-15
2022/03/31 02:57:02;;;;;;;1.55;1.20;;;;;;;;;;5041694;28;20237;-15
2022/03/31 02:59:30;;;;;;;2.42;1.13;;;;;;;;;;5046560;28;20230;-15
2022/03/31 03:01:58;;;;;;;1.48;0.90;;;;;;;;;;5041239;28;20237;-15
2022/03/31 03:04:27;;;;;;;2.05;1.17;;;;;;;;;;5042698;28;20222;-15
2022/03/31 03:06:55;;;;;;;1.48;1.10;;;;;;;;;;5041196;28;20223;-15
2022/03/31 03:09:23;;;;;;;3.50;1.13;;;;;;;;;;5042825;28;20241;-14
2022/03/31 03:11:50;;;;;;;1.10;0.90;;;;;;;;;;5042305;28;20256;-15
2022/03/31 03:14:17;;;;;;;1.48;1.10;;;;;;;;;;5040327;28;20235;-15
2022/03/31 03:16:45;;;;;;;2.28;1.13;;;;;;;;;;5045672;28;20226;-15
2022/03/31 03:19:12;;;;;;;2.22;0.82;;;;;;;;;;5036462;28;20614;-14
2022/03/31 03:21:40;;;;;;;1.10;0.85;;;;;;;;;;5043420;28;20250;-15
2022/03/31 03:24:10;;;;;;;1.45;0.85;;;;;;;;;;5040542;28;20227;-15
2022/03/31 03:26:37;;;;;;;1.13;0.90;;;;;;;;;;5040864;28;20324;-15
2022/03/31 03:29:05;;;;;;;3.33;1.08;;;;;;;;;;5040718;28;20226;-15
2022/03/31 03:31:32;;;;;;;2.35;0.88;;;;;;;;;;5045882;28;20233;-14
2022/03/31 03:33:59;;;;;;;1.00;0.70;;;;;;;;;;5043803;28;20325;-15
2022/03/31 03:36:27;;;;;;;1.40;0.90;;;;;;;;;;5041766;28;20616;-15
2022/03/31 03:38:55;;;;;;;1.42;0.73;;;;;;;;;;5040774;28;20222;-14
2022/03/31 03:41:23;;;;;;;1.15;0.80;;;;;;;;;;5042506;28;21040;-15
2022/03/31 03:43:50;;;;;;;1.20;0.70;;;;;;;;;;5040719;28;20238;-15
2022/03/31 03:46:18;;;;;;;0.60;0.60;;;;;;;;;;5042759;28;20768;-15
2022/03/31 03:48:45;;;;;;;1.25;0.70;;;;;;;;;;5043270;28;20262;-15
2022/03/31 03:51:12;;;;;;;1.13;0.52;;;;;;;;;;5039429;28;20226;-15
2022/03/31 03:53:40;;;;;;;0.95;0.55;;;;;;;;;;5039780;28;20235;-15
2022/03/31 03:56:07;;;;;;;1.50;0.73;;;;;;;;;;5038159;28;20238;-15
2022/03/31 03:58:36;;;;;;;0.70;0.70;;;;;;;;;;5042133;28;20231;-14
2022/03/31 04:01:03;;;;;;;0.70;0.60;;;;;;;;;;5042123;28;20236;-15
2022/03/31 04:03:31;;;;;;;0.90;0.57;;;;;;;;;;5039791;28;20253;-15
2022/03/31 04:05:58;;;;;;;0.70;0.40;;;;;;;;;;5041224;28;20227;-14
2022/03/31 04:08:25;;;;;;;0.90;0.60;;;;;;;;;;5041500;28;20245;-15
2022/03/31 04:10:53;;;;;;;0.73;0.60;;;;;;;;;;5041794;28;20256;-14
2022/03/31 04:13:20;;;;;;;1.10;0.60;;;;;;;;;;5040254;28;21041;-15
2022/03/31 04:15:49;;;;;;;0.70;0.47;;;;;;;;;;5044541;28;20238;-15
2022/03/31 04:18:16;;;;;;;2.00;0.60;;;;;;;;;;5039050;28;20230;-14
2022/03/31 04:20:43;;;;;;;1.10;0.60;;;;;;;;;;5035001;28;20234;-15
2022/03/31 04:23:11;;;;;;;1.73;0.60;;;;;;;;;;5042240;28;20278;-15
2022/03/31 04:25:38;;;;;;;0.30;0.30;;;;;;;;;;5039118;28;20238;-15
2022/03/31 04:28:06;;;;;;;1.00;0.60;;;;;;;;;;5040343;28;21040;-15
2022/03/31 04:30:34;;;;;;;0.88;0.50;;;;;;;;;;5043461;28;20285;-14
2022/03/31 04:33:03;;;;;;;1.00;0.43;;;;;;;;;;5040651;28;20234;-15
2022/03/31 04:35:30;;;;;;;1.13;0.50;;;;;;;;;;5041123;28;20246;-14
2022/03/31 04:37:57;;;;;;;0.60;0.38;;;;;;;;;;5040521;28;20222;-14
2022/03/31 04:40:25;;;;;;;0.63;0.40;;;;;;;;;;5039894;28;20234;-15
2022/03/31 04:42:52;;;;;;;1.52;0.60;;;;;;;;;;5041860;28;20972;-15
2022/03/31 04:45:19;;;;;;;1.05;0.45;;;;;;;;;;5040541;28;20234;-15
2022/03/31 04:47:47;;;;;;;0.45;0.30;;;;;;;;;;5042640;28;20237;-15
2022/03/31 04:50:15;;;;;;;0.98;0.40;;;;;;;;;;5039147;28;20234;-15
2022/03/31 04:52:43;;;;;;;0.80;0.50;;;;;;;;;;5035243;28;20241;-14
2022/03/31 04:55:10;;;;;;;0.50;0.30;;;;;;;;;;5039538;28;20238;-15
2022/03/31 04:57:37;;;;;;;0.90;0.30;;;;;;;;;;5041822;28;20238;-14
2022/03/31 05:00:06;;;;;;;0.45;0.38;;;;;;;;;;5039797;28;20325;-14
2022/03/31 05:02:33;;;;;;;1.33;0.30;;;;;;;;;;5040080;28;20976;-15
2022/03/31 05:05:01;;;;;;;1.02;0.20;;;;;;;;;;5040301;28;20659;-15
2022/03/31 05:07:29;;;;;;;0.30;0.30;;;;;;;;;;5040325;28;20239;-15
2022/03/31 05:09:57;;;;;;;0.30;0.30;;;;;;;;;;5041749;28;20309;-15
2022/03/31 05:12:24;;;;;;;0.50;0.30;;;;;;;;;;5040752;28;20249;-15
2022/03/31 05:14:52;;;;;;;0.32;0.20;;;;;;;;;;5041659;28;20237;-15
2022/03/31 05:17:19;;;;;;;0.30;0.30;;;;;;;;;;5040546;28;20231;-15
2022/03/31 05:19:46;;;;;;;0.68;0.40;;;;;;;;;;5042374;28;20325;-15
2022/03/31 05:22:14;;;;;;;0.38;0.30;;;;;;;;;;5037817;28;20245;-15
2022/03/31 05:24:42;;;;;;;0.50;0.30;;;;;;;;;;5043528;28;20230;-15
2022/03/31 05:27:10;;;;;;;0.57;0.40;;;;;;;;;;5038989;28;20242;-15
2022/03/31 05:29:37;;;;;;;2.05;0.30;;;;;;;;;;5041436;28;20289;-15
2022/03/31 05:32:05;;;;;;;0.20;0.20;;;;;;;;;;5041289;28;20230;-15
2022/03/31 05:34:34;;;;;;;0.30;0.30;;;;;;;;;;5038412;28;20238;-15
2022/03/31 05:37:02;;;;;;;0.30;0.30;;;;;;;;;;5040581;28;20246;-15
2022/03/31 05:39:29;;;;;;;0.35;0.30;;;;;;;;;;5040202;28;20234;-15
2022/03/31 05:41:58;;;;;;;0.80;0.30;;;;;;;;;;5039916;28;20230;-15
2022/03/31 05:44:25;;;;;;;0.57;0.38;;;;;;;;;;5039921;28;20231;-15
2022/03/31 05:46:52;;;;;;;3.97;0.30;;;;;;;;;;5042834;28;20240;-15
2022/03/31 05:49:20;;;;;;;0.50;0.30;;;;;;;;;;5039032;28;20242;-15
2022/03/31 05:51:47;;;;;;;0.30;0.30;;;;;;;;;;5044992;28;20265;-14
2022/03/31 05:54:14;;;;;;;0.47;0.30;;;;;;;;;;5041570;28;20225;-16
2022/03/31 05:56:43;;;;;;;0.30;0.20;;;;;;;;;;5039090;28;20235;-15
2022/03/31 05:59:11;;;;;;;0.68;0.30;;;;;;;;;;5044159;28;20788;-15
2022/03/31 06:01:39;;;;;;;0.45;0.40;;;;;;;;;;5044775;28;20725;-15
2022/03/31 06:04:06;;;;;;;0.22;0.20;;;;;;;;;;5042319;28;20226;-15
2022/03/31 06:06:34;;;;;;;0.38;0.25;;;;;;;;;;5043580;28;20775;-15
2022/03/31 06:09:01;;;;;;;1.10;0.30;;;;;;;;;;5042819;28;20237;-15
2022/03/31 06:11:28;;;;;;;0.55;0.35;;;;;;;;;;5042628;28;20231;-15
2022/03/31 06:13:56;;;;;;;0.73;0.30;;;;;;;;;;5043537;28;20230;-15
2022/03/31 06:16:24;;;;;;;0.82;0.50;;;;;;;;;;5044049;28;20250;-15
2022/03/31 06:18:52;;;;;;;0.55;0.30;;;;;;;;;;5044261;28;20238;-15
2022/03/31 06:21:19;;;;;;;0.30;0.30;;;;;;;;;;5041328;28;20580;-15
2022/03/31 06:23:47;;;;;;;0.60;0.30;;;;;;;;;;5041027;28;20237;-15
2022/03/31 06:26:14;;;;;;;0.28;0.28;;;;;;;;;;5032628;28;20667;-15
2022/03/31 06:28:41;;;;;;;0.32;0.30;;;;;;;;;;5041204;28;20324;-15
2022/03/31 06:31:09;;;;;;;0.85;0.30;;;;;;;;;;5039332;28;20226;-15
2022/03/31 06:33:38;;;;;;;0.20;0.20;;;;;;;;;;5040432;28;20246;-15
2022/03/31 06:36:06;;;;;;;1.65;0.30;;;;;;;;;;5041581;28;20237;-15
2022/03/31 06:38:33;;;;;;;0.50;0.40;;;;;;;;;;5040636;28;21034;-15
2022/03/31 06:41:13;;;;;;;0.57;0.20;;;;;;;;;;5040895;28;20238;-15
2022/03/31 06:43:41;;;;;;;0.85;0.30;;;;;;;;;;5040509;28;20783;-15
2022/03/31 06:46:08;;;;;;;2.70;0.40;;;;;;;;;;5043588;28;20238;-15
2022/03/31 06:48:36;;;;;;;0.52;0.43;;;;;;;;;;5042859;28;20231;-15
2022/03/31 06:51:05;;;;;;;1.70;0.40;;;;;;;;;;5040900;28;20226;-15
2022/03/31 06:53:32;;;;;;;0.47;0.30;;;;;;;;;;5040807;28;20241;-15
2022/03/31 06:56:00;;;;;;;0.40;0.40;;;;;;;;;;5041426;28;20227;-15
2022/03/31 06:58:29;;;;;;;0.40;0.30;;;;;;;;;;5040771;28;20231;-15
2022/03/31 07:00:57;;;;;;;0.40;0.30;;;;;;;;;;5039639;28;20230;-15
2022/03/31 07:03:24;;;;;;;1.50;0.25;;;;;;;;;;5035747;28;20250;-15
2022/03/31 07:05:52;;;;;;;0.32;0.30;;;;;;;;;;5034945;28;20235;-15
2022/03/31 07:08:21;;;;;;;0.80;0.32;;;;;;;;;;5035327;28;20241;-15
2022/03/31 07:10:49;;;;;;;1.45;0.30;;;;;;;;;;5040988;28;20230;-15
2022/03/31 07:13:16;;;;;;;0.73;0.30;;;;;;;;;;5039262;28;20235;-15
2022/03/31 07:15:43;;;;;;;1.10;0.30;;;;;;;;;;5040391;28;20230;-15
2022/03/31 07:18:11;;;;;;;0.20;0.20;;;;;;;;;;5040185;28;20251;-15
2022/03/31 07:20:38;;;;;;;0.43;0.20;;;;;;;;;;5043434;28;20234;-15
2022/03/31 07:23:06;;;;;;;0.30;0.20;;;;;;;;;;5040065;28;20729;-15
2022/03/31 07:25:35;;;;;;;1.58;0.32;;;;;;;;;;5042520;28;20712;-15
2022/03/31 07:28:03;;;;;;;0.38;0.30;;;;;;;;;;5041088;28;20237;-15
2022/03/31 07:30:30;;;;;;;14.55;0.80;;;;;;;;;;5039853;28;20421;-15
2022/03/31 07:32:58;;;;;;;22.30;1.20;;;;;;;;;;5039515;28;20467;-15
2022/03/31 07:35:26;;;;;;;24.40;1.00;;;;;;;;;;5041817;28;20230;-15
2022/03/31 07:37:54;;;;;;;29.30;1.15;;;;;;;;;;5043175;28;20245;-16
2022/03/31 07:40:21;;;;;;;11.25;0.73;;;;;;;;;;5040770;28;21062;-17
2022/03/31 07:42:50;;;;;;;13.68;0.70;;;;;;;;;;5044175;28;20242;-14
2022/03/31 07:45:18;;;;;;;14.77;0.98;;;;;;;;;;5040547;28;20239;-15
2022/03/31 07:47:45;;;;;;;10.35;0.70;;;;;;;;;;5043452;28;20296;-15
2022/03/31 07:50:14;;;;;;;8.20;1.10;;;;;;;;;;5032998;28;20231;-14
2022/03/31 07:52:42;;;;;;;9.88;1.00;;;;;;;;;;5041043;28;20238;-15
2022/03/31 07:55:10;;;;;;;8.15;0.60;;;;;;;;;;5037798;28;20226;-15
2022/03/31 07:57:38;;;;;;;6.47;0.80;;;;;;;;;;5039309;28;20238;-14
2022/03/31 08:00:07;;;;;;;6.70;0.60;;;;;;;;;;5036368;28;20245;-15
2022/03/31 08:02:34;;;;;;;3.00;0.60;;;;;;;;;;5032027;28;20237;-14
2022/03/31 08:05:02;;;;;;;8.30;0.47;;;;;;;;;;5031999;28;20234;-15
2022/03/31 08:07:34;;;;;;;8.55;0.85;;;;;;;;;;5036011;28;20230;-15
2022/03/31 08:10:02;;;;;;;5.75;0.60;;;;;;;;;;5033406;28;20226;-15
2022/03/31 08:12:29;;;;;;;5.45;0.80;;;;;;;;;;5037606;28;20235;-15
2022/03/31 08:14:56;;;;;;;4.30;0.50;;;;;;;;;;5039636;28;20693;-15
2022/03/31 08:17:25;;;;;;;2.80;0.63;;;;;;;;;;5041043;28;20234;-15
2022/03/31 08:19:52;;;;;;;10.40;0.47;;;;;;;;;;5038851;28;21014;-15
2022/03/31 08:22:20;;;;;;;6.18;0.70;;;;;;;;;;5039489;28;20239;-15
2022/03/31 08:24:47;;;;;;;4.22;0.40;;;;;;;;;;5042571;28;20222;-15
2022/03/31 08:27:14;;;;;;;9.35;0.60;;;;;;;;;;5039526;28;20219;-15
2022/03/31 08:29:42;;;;;;;3.70;0.30;;;;;;;;;;5035847;28;20234;-15
2022/03/31 08:32:09;;;;;;;0.82;0.38;;;;;;;;;;5036147;28;20766;-15
2022/03/31 08:34:38;;;;;;;5.47;0.40;;;;;;;;;;5043196;28;20231;-15
2022/03/31 08:37:05;;;;;;;3.63;0.32;;;;;;;;;;5041589;28;20243;-15
2022/03/31 08:39:32;;;;;;;1.77;0.40;;;;;;;;;;5039992;28;20249;-15
2022/03/31 08:42:00;;;;;;;2.80;0.65;;;;;;;;;;5039454;28;20261;-15
2022/03/31 08:44:27;;;;;;;1.50;0.40;;;;;;;;;;5035463;28;20222;-15
2022/03/31 08:46:54;;;;;;;1.77;0.30;;;;;;;;;;5043458;28;20238;-15
2022/03/31 08:49:22;;;;;;;0.43;0.20;;;;;;;;;;5040270;28;20265;-15
2022/03/31 08:51:51;;;;;;;0.52;0.30;;;;;;;;;;5042101;28;20234;-15
2022/03/31 08:54:18;;;;;;;1.92;0.50;;;;;;;;;;5038516;28;20329;-15
2022/03/31 08:56:45;;;;;;;1.45;0.40;;;;;;;;;;5036447;28;20234;-15
2022/03/31 08:59:32;;;;;;;2.77;0.57;;;;;;;;;;5029144;28;20428;-15
2022/03/31 09:02:00;;;;;;;2.55;0.50;;;;;;;;;;5038877;28;20344;-15
2022/03/31 09:04:28;;;;;;;1.40;0.50;;;;;;;;;;5031695;28;20230;-15
2022/03/31 09:07:02;;;;;;;3.63;0.70;;;;;;;;;;5037823;28;20732;-15
2022/03/31 09:09:30;;;;;;;9.48;0.70;;;;;;;;;;5030600;28;20238;-15
2022/03/31 09:11:57;;;;;;;10.25;1.20;;;;;;;;;;5033636;28;20740;-15
2022/03/31 09:14:44;;;;;;;9.90;1.48;;;;;;;;;;5029526;28;20237;-15
2022/03/31 09:17:12;;;;;;;12.98;1.02;;;;;;;;;;5037365;28;20229;-16
2022/03/31 09:19:39;;;;;;;7.38;1.15;;;;;;;;;;5037630;28;20423;-15
2022/03/31 09:22:08;;;;;;;12.45;1.23;;;;;;;;;;5036454;28;20242;-15
2022/03/31 09:24:35;;;;;;;10.13;1.25;;;;;;;;;;5040805;28;20413;-15
2022/03/31 09:27:03;;;;;;;3.88;0.80;;;;;;;;;;5043118;28;20709;-15
2022/03/31 09:29:32;;;;;;;10.27;1.25;;;;;;;;;;5046697;28;20596;-15
2022/03/31 09:32:06;;;;;;;7.22;1.10;;;;;;;;;;5044787;28;20227;-15
2022/03/31 09:34:38;;;;;;;3.45;0.88;;;;;;;;;;5044969;28;20237;-15
2022/03/31 09:37:05;;;;;;;10.63;0.90;;;;;;;;;;5044131;28;20222;-15
2022/03/31 09:39:34;;;;;;;5.05;1.02;;;;;;;;;;5041002;28;20251;-15
2022/03/31 09:42:01;;;;;;;3.05;0.70;;;;;;;;;;5035090;28;20227;-15
2022/03/31 09:44:29;;;;;;;3.42;0.70;;;;;;;;;;5036519;28;20234;-15
2022/03/31 09:46:56;;;;;;;4.35;0.70;;;;;;;;;;5038127;28;20238;-16
2022/03/31 09:49:25;;;;;;;3.03;0.70;;;;;;;;;;5037927;28;20231;-16
2022/03/31 09:51:53;;;;;;;7.53;0.70;;;;;;;;;;5043831;28;20291;-15
2022/03/31 09:54:22;;;;;;;6.20;0.80;;;;;;;;;;5043036;28;20230;-16
2022/03/31 09:56:51;;;;;;;5.30;0.77;;;;;;;;;;5037869;28;20759;-16
2022/03/31 09:59:18;;;;;;;6.10;0.93;;;;;;;;;;5041781;28;20247;-16
2022/03/31 10:01:52;;;;;;;5.90;0.65;;;;;;;;;;5045774;28;20234;-15
2022/03/31 10:04:20;;;;;;;3.45;0.75;;;;;;;;;;5041565;28;20235;-15
2022/03/31 10:06:54;;;;;;;3.35;0.70;;;;;;;;;;5038434;28;20238;-15
2022/03/31 10:09:22;;;;;;;4.20;0.70;;;;;;;;;;5032749;28;20264;-16
2022/03/31 10:11:51;;;;;;;4.00;0.98;;;;;;;;;;5030714;28;20995;-15
2022/03/31 10:14:20;;;;;;;5.20;0.90;;;;;;;;;;5031764;28;20305;-15
2022/03/31 10:16:50;;;;;;;4.30;0.90;;;;;;;;;;5035233;28;20337;-15
2022/03/31 10:19:30;;;;;;;11.55;1.55;;;;;;;;;;5035384;28;20242;-15
2022/03/31 10:22:01;;;;;;;10.60;1.35;;;;;;;;;;5036438;28;20232;-15
2022/03/31 10:24:42;;;;;;;11.98;1.45;;;;;;;;;;5041204;28;20241;-16
2022/03/31 10:27:14;;;;;;;16.25;1.48;;;;;;;;;;5039621;28;20326;-15
2022/03/31 10:29:42;;;;;;;10.93;1.10;;;;;;;;;;5043655;28;21031;-15
2022/03/31 10:32:16;;;;;;;13.40;1.27;;;;;;;;;;5039192;28;20226;-15
2022/03/31 10:34:47;;;;;;;8.95;1.40;;;;;;;;;;5036734;28;20244;-15
2022/03/31 10:37:14;;;;;;;7.40;1.05;;;;;;;;;;5037101;28;20227;-15
2022/03/31 10:39:50;;;;;;;9.00;1.10;;;;;;;;;;5044451;28;20234;-15
2022/03/31 10:42:18;;;;;;;6.85;0.98;;;;;;;;;;5031620;28;20237;-15
2022/03/31 10:44:46;;;;;;;14.48;1.17;;;;;;;;;;5043029;28;20445;-15
2022/03/31 10:47:14;;;;;;;9.75;1.05;;;;;;;;;;5040465;28;20230;-15
2022/03/31 10:49:51;;;;;;;7.75;1.23;;;;;;;;;;5039751;28;20226;-15
2022/03/31 10:52:23;;;;;;;6.75;0.93;;;;;;;;;;5035286;28;20231;-15
2022/03/31 10:54:50;;;;;;;6.60;1.23;;;;;;;;;;5038789;28;20231;-15
2022/03/31 10:57:19;;;;;;;11.05;1.15;;;;;;;;;;5040441;28;20227;-15
2022/03/31 10:59:46;;;;;;;7.47;1.02;;;;;;;;;;5043302;28;20285;-15
2022/03/31 11:02:14;;;;;;;8.43;0.70;;;;;;;;;;5044552;28;20237;-15
2022/03/31 11:04:42;;;;;;;3.35;0.80;;;;;;;;;;5037430;28;20234;-15
2022/03/31 11:07:13;;;;;;;6.63;1.10;;;;;;;;;;5040492;28;20235;-15
2022/03/31 11:09:42;;;;;;;4.65;1.15;;;;;;;;;;5043336;28;20214;-15
2022/03/31 11:12:21;;;;;;;5.65;1.17;;;;;;;;;;5039649;28;20917;-14
2022/03/31 11:14:53;;;;;;;8.57;0.95;;;;;;;;;;5035760;28;20242;-14
2022/03/31 11:17:22;;;;;;;8.85;1.10;;;;;;;;;;5047036;28;20234;-14
2022/03/31 11:19:50;;;;;;;3.95;1.30;;;;;;;;;;5039609;28;20795;-14
2022/03/31 11:22:21;;;;;;;6.32;0.90;;;;;;;;;;5041092;28;20247;-15
2022/03/31 11:24:50;;;;;;;7.70;0.82;;;;;;;;;;5041642;28;20701;-14
2022/03/31 11:27:31;;;;;;;11.25;1.05;;;;;;;;;;5042312;28;20239;-14
2022/03/31 11:29:58;;;;;;;5.43;1.00;;;;;;;;;;5042161;28;20307;-14
2022/03/31 11:32:32;;;;;;;4.85;0.98;;;;;;;;;;5042502;28;20230;-14
2022/03/31 11:34:59;;;;;;;2.58;0.77;;;;;;;;;;5039874;28;20236;-14
2022/03/31 11:37:27;;;;;;;4.20;0.70;;;;;;;;;;5040071;28;20233;-14
2022/03/31 11:39:54;;;;;;;4.60;1.00;;;;;;;;;;5041250;28;20245;-14
2022/03/31 11:42:22;;;;;;;2.63;0.98;;;;;;;;;;5043475;28;21103;-15
2022/03/31 11:44:50;;;;;;;3.88;1.10;;;;;;;;;;5040293;28;20230;-15
2022/03/31 11:47:18;;;;;;;1.27;0.70;;;;;;;;;;5040140;28;20239;-14
2022/03/31 11:49:55;;;;;;;4.72;0.90;;;;;;;;;;5042627;28;20233;-15
2022/03/31 11:52:28;;;;;;;2.15;0.80;;;;;;;;;;5039438;28;20702;-15
2022/03/31 11:55:00;;;;;;;4.15;0.85;;;;;;;;;;5041367;28;20238;-14
2022/03/31 11:57:28;;;;;;;6.38;0.90;;;;;;;;;;5040013;28;20230;-15
2022/03/31 11:59:57;;;;;;;13.37;1.30;;;;;;;;;;5039184;28;20426;-15
2022/03/31 12:02:24;;;;;;;8.05;1.08;;;;;;;;;;5041729;28;20215;-15
2022/03/31 12:04:51;;;;;;;11.38;1.60;;;;;;;;;;5042131;28;20701;-15
2022/03/31 12:07:19;;;;;;;10.52;1.30;;;;;;;;;;5039129;28;20448;-15
2022/03/31 12:09:48;;;;;;;8.88;1.23;;;;;;;;;;5038279;28;20236;-15
2022/03/31 12:12:16;;;;;;;6.85;1.10;;;;;;;;;;5038504;28;20234;-14
2022/03/31 12:14:52;;;;;;;5.10;1.13;;;;;;;;;;5042724;28;20234;-15
2022/03/31 12:17:21;;;;;;;7.32;0.90;;;;;;;;;;5039922;28;20231;-15
2022/03/31 12:19:48;;;;;;;8.35;1.38;;;;;;;;;;5042733;28;20244;-15
2022/03/31 12:22:15;;;;;;;4.88;0.75;;;;;;;;;;5038487;28;20243;-15
2022/03/31 12:24:47;;;;;;;6.43;0.90;;;;;;;;;;5034115;28;20918;-15
2022/03/31 12:27:15;;;;;;;7.25;0.95;;;;;;;;;;5035468;28;20234;-15
2022/03/31 12:29:42;;;;;;;7.70;0.85;;;;;;;;;;5042832;28;20265;-15
2022/03/31 12:32:10;;;;;;;2.40;1.00;;;;;;;;;;5040261;28;20816;-15
2022/03/31 12:34:39;;;;;;;4.53;0.77;;;;;;;;;;5041747;28;20677;-15
2022/03/31 12:37:07;;;;;;;6.28;0.90;;;;;;;;;;5038432;28;20234;-15
2022/03/31 12:39:40;;;;;;;2.22;0.63;;;;;;;;;;5043307;28;20215;-15
2022/03/31 12:42:08;;;;;;;1.70;0.63;;;;;;;;;;5041106;28;20234;-15
2022/03/31 12:44:38;;;;;;;10.55;0.77;;;;;;;;;;5041773;28;20237;-15
2022/03/31 12:47:06;;;;;;;11.23;1.00;;;;;;;;;;5040002;28;20422;-15
2022/03/31 12:49:34;;;;;;;9.32;0.82;;;;;;;;;;5038679;28;20701;-15
2022/03/31 12:52:04;;;;;;;6.63;0.70;;;;;;;;;;5040196;28;20230;-15
2022/03/31 12:54:33;;;;;;;4.00;0.70;;;;;;;;;;5040646;28;20261;-15
2022/03/31 12:57:01;;;;;;;6.20;0.80;;;;;;;;;;5039845;28;20713;-14
2022/03/31 12:59:30;;;;;;;4.30;0.70;;;;;;;;;;5042348;28;20223;-15
2022/03/31 13:01:58;;;;;;;3.28;0.63;;;;;;;;;;5045259;28;20242;-15
2022/03/31 13:04:25;;;;;;;4.22;0.43;;;;;;;;;;5041860;28;20236;-15
2022/03/31 13:06:53;;;;;;;4.63;0.80;;;;;;;;;;5045110;28;20408;-15
2022/03/31 13:09:22;;;;;;;6.38;1.33;;;;;;;;;;5038639;28;20238;-15
2022/03/31 13:11:51;;;;;;;8.27;1.20;;;;;;;;;;5039145;28;20508;-15
2022/03/31 13:14:19;;;;;;;7.45;1.10;;;;;;;;;;5042801;28;20226;-15
2022/03/31 13:16:46;;;;;;;7.25;1.05;;;;;;;;;;5045510;28;20233;-15
2022/03/31 13:19:14;;;;;;;5.90;1.00;;;;;;;;;;5038214;28;21147;-15
2022/03/31 13:21:41;;;;;;;2.03;0.70;;;;;;;;;;5045299;28;20313;-15
2022/03/31 13:24:08;;;;;;;4.10;0.93;;;;;;;;;;5045011;28;20237;-15
2022/03/31 13:26:37;;;;;;;4.75;0.85;;;;;;;;;;5043089;28;20222;-15
2022/03/31 13:29:05;;;;;;;4.88;0.93;;;;;;;;;;5042873;28;20245;-15
2022/03/31 13:31:33;;;;;;;8.18;1.20;;;;;;;;;;5044236;28;21568;-15
2022/03/31 13:34:00;;;;;;;4.47;1.08;;;;;;;;;;5043558;28;20222;-15
2022/03/31 13:36:28;;;;;;;7.93;0.65;;;;;;;;;;5043817;28;20350;-15
2022/03/31 13:38:55;;;;;;;3.90;0.85;;;;;;;;;;5043665;28;20226;-15
2022/03/31 13:41:23;;;;;;;10.23;0.70;;;;;;;;;;5042679;28;20273;-15
2022/03/31 13:43:52;;;;;;;3.70;0.70;;;;;;;;;;5044502;28;20235;-15
2022/03/31 13:46:19;;;;;;;4.60;1.10;;;;;;;;;;5044188;28;20234;-15
2022/03/31 13:48:47;;;;;;;6.68;0.65;;;;;;;;;;5048492;28;20615;-15
2022/03/31 13:51:14;;;;;;;8.85;1.05;;;;;;;;;;5040206;28;20234;-15
2022/03/31 13:53:44;;;;;;;12.48;0.80;;;;;;;;;;5042417;28;20430;-15
2022/03/31 13:56:12;;;;;;;10.98;1.05;;;;;;;;;;5038249;28;20442;-14
2022/03/31 14:01:25;;;;;;;3.17;0.80;;;;;;;;;;5044939;28;20747;-14
2022/03/31 14:03:54;;;;;;;3.20;0.80;;;;;;;;;;5044573;28;20226;-14
2022/03/31 14:06:22;;;;;;;11.98;1.10;;;;;;;;;;5042649;28;21087;-14
2022/03/31 14:08:49;;;;;;;4.38;0.70;;;;;;;;;;5043752;28;20238;-14
2022/03/31 14:11:17;;;;;;;0.88;0.60;;;;;;;;;;5040769;28;20325;-14
2022/03/31 14:13:44;;;;;;;3.92;0.77;;;;;;;;;;5041425;28;20986;-14
2022/03/31 14:16:12;;;;;;;16.23;1.00;;;;;;;;;;5042183;28;20740;-14
2022/03/31 14:18:41;;;;;;;1.88;0.80;;;;;;;;;;5041960;28;20235;-14
2022/03/31 14:21:09;;;;;;;2.90;0.93;;;;;;;;;;5042986;28;20827;-14
2022/03/31 14:23:37;;;;;;;3.75;0.60;;;;;;;;;;5042877;28;20242;-14
2022/03/31 14:26:04;;;;;;;3.03;0.90;;;;;;;;;;5042527;28;20238;-14
2022/03/31 14:28:33;;;;;;;1.27;0.60;;;;;;;;;;5043534;28;20235;-14
2022/03/31 14:31:00;;;;;;;5.50;1.70;;;;;;;;;;5036449;28;20226;-15
2022/03/31 14:33:49;;;;;;;7.00;1.10;;;;;;;;;;5033899;28;20241;-14
2022/03/31 14:36:17;;;;;;;3.78;0.63;;;;;;;;;;5031330;28;20716;-15
2022/03/31 14:38:50;;;;;;;3.90;0.93;;;;;;;;;;5032451;28;20283;-15
2022/03/31 14:41:17;;;;;;;4.90;0.70;;;;;;;;;;5030399;28;20246;-15
2022/03/31 14:43:53;;;;;;;2.05;0.70;;;;;;;;;;5033212;28;20231;-15
2022/03/31 14:46:20;;;;;;;3.08;0.80;;;;;;;;;;5037005;28;20715;-15
2022/03/31 14:48:50;;;;;;;2.25;0.60;;;;;;;;;;5033006;28;21064;-16
2022/03/31 14:51:18;;;;;;;2.58;0.93;;;;;;;;;;5037966;28;20229;-15
2022/03/31 14:53:45;;;;;;;3.55;0.90;;;;;;;;;;5037256;28;20231;-15
2022/03/31 14:56:12;;;;;;;8.02;0.85;;;;;;;;;;5034814;28;20701;-16